Terminal Aerodrome Forecast
Issued by NWS

Home | Current Version | Previous Version | Text Only | Print | Product List | Glossary On
Versions: 1 2 3 4 5 6 7 8 9 10 11 12 13 14 15 16 17 18 19 20 21 22 23
000
FTUS45 KGJT 241134
TAFVEL
TAF
KVEL 241134Z 2412/2512 29005KT P6SM BKN200
     FM241700 24004KT P6SM OVC060
     FM242000 25014G25KT P6SM -SHRA SCT050 OVC070
     FM250000 29015G27KT P6SM BKN130
     FM250500 23005KT P6SM OVC120=

USA.gov is the U.S. government's official web portal to all federal, state and local government web resources and services.